Sanders, MT (59076)

4:32 AM MST on February 07, 2016 (GMT -0700)
KMTFORSY4 | | Change Station
CLOSE
Current Station
Personal Weather Station
Location: Forsyth, MT
Elevation: 2776 ft
Nearby Weather Stations

Elev 2776 ft 46.30 °N, 106.70 °W | Updated 2 seconds ago

Clear
Clear
32.8 °F
Feels Like 25 °F
N
10.2
Wind Variable Wind from WNW
Gusts 24.3 mph

Today
High -- | Low -- °F
--% Chance of Precip.
Yesterday
High -- | Low -- °F
Precip. -- in
Pressure 30.17 in
Visibility 10.0 miles
Clouds Clear
Windchill 25 °F
Dew Point 15 °F
Humidity 48%
Rainfall 0.00 in
Snow Depth Not available.
7:24 AM 5:21 PM
Waning Crescent, 2% visible
METAR KMLS 071053Z AUTO 30024G32KT 10SM CLR 01/M08 A3012 RMK AO2 PK WND 30032/1050 SLP214 T00111083
Pressure 30.17 in
Visibility 10.0 miles
Clouds Clear
Windchill 25 °F
Dew Point 15 °F
Humidity 48%
Rainfall 0.00 in
Snow Depth Not available.
7:24 AM 5:21 PM
Waning Crescent, 2% visible
METAR KMLS 071053Z AUTO 30024G32KT 10SM CLR 01/M08 A3012 RMK AO2 PK WND 30032/1050 SLP214 T00111083

10-Day Weather Forecast

Almanac

Astronomy

Feb. 07, 2016 Rise Set
Actual Time
Civil Twilight
Nautical Twilight
Astronomical Twilight
Moon
Length of Visible Light
Length of Day
Tomorrow will be .
, % of the Moon is Illuminated

Today's Extremes

State Highs State Lows

Community

WunderPhotos

Upload Photos

1,891,168 photos uploaded!

WunderBlog® & News

Nearby

Air Quality

  Air Quality AQ Index Pollutant
Not available.

Snow Depth

Station Depth Elevation

Earthquake Activity

City Distance Mag. Time & Date
Minimum magnitude displayed is 2.5.

Coastal Water Temperatures

Place Temperature

Stations

Nearby Weather Stations

Station Location Temp. Windchill Dew Point Humidity Wind Precip. Elev Updated Type
                   

Watches & Warnings

There are currently no watches in effect.